Seadrift, Texas
Current Conditions -  °F | °C
As of 7:35 PM on Friday 24 Oct 2014 (Local Time) from KPKV Reporting Station
Clear Clear  
Wind Chill: 71°   Ceiling: Unl
Heat Index: 71°   Visibility: 10mi
Dew Point: 62°   Wind: 5mph
Humidity: 72%   Direction: 130°SE
Pressure: 30.1"   Gusts: NA
Location:  28.42°N, 96.71°W
Report Text: KPKV 250035Z AUTO 13004KT 10SM CLR 22/17 A3010 RMK AO2 T02170165
Loading
Personal Weather Stations






























Interactive Weather Map
Tropical Storm Tracking
New forecast layout! Learn more

10-Day Weather Forecast

Advertisements
Track Severe Weather on mobile